Time,TemperatureF,DewpointF,PressureIn,WindDirection,WindDirectionDegrees,WindSpeedMPH,WindSpeedGustMPH,Humidity,HourlyPrecipIn,Conditions,Clouds,dailyrainin,SoftwareType,DateUTC
2013-07-15 00:11:00,61.5,41.0,30.07,SW,224,3.0,-999.0,47,-99.99,,,0.00,weatherlink.com 1.10,2013-07-15 07:11:00,
2013-07-15 00:26:00,59.7,40.0,30.07,SSW,211,0.0,-999.0,49,-99.99,,,0.00,weatherlink.com 1.10,2013-07-15 07:26:00,
2013-07-15 00:41:00,58.7,40.0,30.07,SW,219,3.0,-999.0,50,-99.99,,,0.00,weatherlink.com 1.10,2013-07-15 07:41:00,
2013-07-15 00:56:00,57.4,40.0,30.07,ESE,121,2.0,-999.0,52,-99.99,,,0.00,weatherlink.com 1.10,2013-07-15 07:56:00,
2013-07-15 01:11:00,55.6,39.0,30.07,SSW,193,1.0,-999.0,55,-99.99,,,0.00,weatherlink.com 1.10,2013-07-15 08:11:00,
2013-07-15 01:26:00,54.5,39.0,30.07,SE,129,0.0,-999.0,57,-99.99,,,0.00,weatherlink.com 1.10,2013-07-15 08:26:00,
2013-07-15 01:41:00,53.7,39.0,30.07,SSE,153,2.0,-999.0,57,-99.99,,,0.00,weatherlink.com 1.10,2013-07-15 08:41:00,
2013-07-15 01:56:00,53.1,39.0,30.07,SSE,166,2.0,-999.0,59,-99.99,,,0.00,weatherlink.com 1.10,2013-07-15 08:56:00,
2013-07-15 02:11:00,52.6,39.0,30.06,SE,134,2.0,-999.0,60,-99.99,,,0.00,weatherlink.com 1.10,2013-07-15 09:11:00,
2013-07-15 02:26:00,52.3,39.0,30.06,SSE,152,3.0,-999.0,60,-99.99,,,0.00,weatherlink.com 1.10,2013-07-15 09:26:00,
2013-07-15 02:41:00,51.6,38.0,30.06,East,82,0.0,-999.0,61,-99.99,,,0.00,weatherlink.com 1.10,2013-07-15 09:41:00,
2013-07-15 02:56:00,51.5,36.0,30.06,SSE,154,2.0,-999.0,55,-99.99,,,0.00,weatherlink.com 1.10,2013-07-15 09:56:00,
2013-07-15 03:11:00,51.0,38.0,30.06,SE,125,1.0,-999.0,62,-99.99,,,0.00,weatherlink.com 1.10,2013-07-15 10:11:00,
2013-07-15 03:26:00,50.6,35.0,30.06,SSE,166,2.0,-999.0,55,-99.99,,,0.00,weatherlink.com 1.10,2013-07-15 10:26:00,
2013-07-15 03:41:00,51.0,33.0,30.06,SSE,152,3.0,-999.0,51,-99.99,,,0.00,weatherlink.com 1.10,2013-07-15 10:41:00,
2013-07-15 03:56:00,49.4,34.0,30.05,SE,146,3.0,-999.0,55,-99.99,,,0.00,weatherlink.com 1.10,2013-07-15 10:56:00,
2013-07-15 04:11:00,50.1,32.0,30.05,SE,131,3.0,-999.0,50,-99.99,,,0.00,weatherlink.com 1.10,2013-07-15 11:11:00,
2013-07-15 04:26:00,49.1,30.0,30.05,SSE,154,2.0,-999.0,48,-99.99,,,0.00,weatherlink.com 1.10,2013-07-15 11:26:00,
2013-07-15 04:41:00,49.0,29.0,30.05,SSE,152,2.0,-999.0,47,-99.99,,,0.00,weatherlink.com 1.10,2013-07-15 11:41:00,
2013-07-15 04:56:00,47.9,28.0,30.05,SE,134,2.0,-999.0,46,-99.99,,,0.00,weatherlink.com 1.10,2013-07-15 11:56:00,
2013-07-15 05:11:00,48.3,28.0,30.05,SSE,157,3.0,-999.0,45,-99.99,,,0.00,weatherlink.com 1.10,2013-07-15 12:11:00,
2013-07-15 05:26:00,48.0,29.0,30.05,SE,137,2.0,-999.0,48,-99.99,,,0.00,weatherlink.com 1.10,2013-07-15 12:26:00,
2013-07-15 05:41:00,48.4,27.0,30.05,SE,143,0.0,-999.0,43,-99.99,,,0.00,weatherlink.com 1.10,2013-07-15 12:41:00,
2013-07-15 05:56:00,49.1,28.0,30.05,SE,132,2.0,-999.0,44,-99.99,,,0.00,weatherlink.com 1.10,2013-07-15 12:56:00,
2013-07-15 06:11:00,50.2,29.0,30.05,SE,132,3.0,-999.0,44,-99.99,,,0.00,weatherlink.com 1.10,2013-07-15 13:11:00,
2013-07-15 06:26:00,52.5,29.0,30.05,SE,141,3.0,-999.0,41,-99.99,,,0.00,weatherlink.com 1.10,2013-07-15 13:26:00,
2013-07-15 06:41:00,54.7,32.0,30.05,SE,142,2.0,-999.0,43,-99.99,,,0.00,weatherlink.com 1.10,2013-07-15 13:41:00,
2013-07-15 06:56:00,57.1,33.0,30.06,SSE,152,2.0,-999.0,40,-99.99,,,0.00,weatherlink.com 1.10,2013-07-15 13:56:00,
2013-07-15 07:11:00,59.9,29.0,30.06,SE,144,2.0,-999.0,31,-99.99,,,0.00,weatherlink.com 1.10,2013-07-15 14:11:00,
2013-07-15 07:26:00,64.3,27.0,30.06,SSE,162,0.0,-999.0,24,-99.99,,,0.00,weatherlink.com 1.10,2013-07-15 14:26:00,
2013-07-15 07:41:00,68.8,26.0,30.06,East,80,0.0,-999.0,20,-99.99,,,0.00,weatherlink.com 1.10,2013-07-15 14:41:00,
2013-07-15 07:56:00,70.0,26.0,30.06,ESE,117,0.0,-999.0,19,-99.99,,,0.00,weatherlink.com 1.10,2013-07-15 14:56:00,
2013-07-15 08:41:00,69.9,32.0,30.05,NW,326,3.0,-999.0,25,-99.99,,,0.00,weatherlink.com 1.10,2013-07-15 15:41:00,
2013-07-15 08:56:00,70.1,34.0,30.05,NW,325,3.0,-999.0,27,-99.99,,,0.00,weatherlink.com 1.10,2013-07-15 15:56:00,
2013-07-15 09:12:00,70.4,34.0,30.05,West,281,3.0,-999.0,26,-99.99,,,0.00,weatherlink.com 1.10,2013-07-15 16:12:00,
2013-07-15 09:26:00,70.6,34.0,30.05,NNW,342,3.0,-999.0,26,-99.99,,,0.00,weatherlink.com 1.10,2013-07-15 16:26:00,
2013-07-15 09:41:00,71.3,34.0,30.05,NNW,329,6.0,-999.0,25,-99.99,,,0.00,weatherlink.com 1.10,2013-07-15 16:41:00,
2013-07-15 09:56:00,72.6,33.0,30.04,NW,319,4.0,-999.0,23,-99.99,,,0.00,weatherlink.com 1.10,2013-07-15 16:56:00,
2013-07-15 10:11:00,73.5,31.0,30.04,NW,322,2.0,-999.0,21,-99.99,,,0.00,weatherlink.com 1.10,2013-07-15 17:11:00,
2013-07-15 10:26:00,74.0,32.0,30.04,NW,319,6.0,-999.0,21,-99.99,,,0.00,weatherlink.com 1.10,2013-07-15 17:26:00,
2013-07-15 10:41:00,74.6,32.0,30.04,NNE,27,4.0,-999.0,21,-99.99,,,0.00,weatherlink.com 1.10,2013-07-15 17:41:00,
2013-07-15 10:56:00,75.7,31.0,30.03,WSW,258,4.0,-999.0,19,-99.99,,,0.00,weatherlink.com 1.10,2013-07-15 17:56:00,
2013-07-15 11:11:00,76.0,32.0,30.03,NNE,22,5.0,-999.0,20,-99.99,,,0.00,weatherlink.com 1.10,2013-07-15 18:11:00,
2013-07-15 11:26:00,76.7,34.0,30.03,North,355,6.0,-999.0,21,-99.99,,,0.00,weatherlink.com 1.10,2013-07-15 18:26:00,
2013-07-15 11:41:00,78.1,33.0,30.02,NW,308,4.0,-999.0,19,-99.99,,,0.00,weatherlink.com 1.10,2013-07-15 18:41:00,
2013-07-15 11:56:00,78.1,33.0,30.02,NW,314,7.0,-999.0,19,-99.99,,,0.00,weatherlink.com 1.10,2013-07-15 18:56:00,
2013-07-15 12:11:00,79.0,33.0,30.02,North,356,9.0,-999.0,19,-99.99,,,0.00,weatherlink.com 1.10,2013-07-15 19:11:00,
2013-07-15 12:26:00,79.4,34.0,30.01,North,4,9.0,-999.0,19,-99.99,,,0.00,weatherlink.com 1.10,2013-07-15 19:26:00,
2013-07-15 12:41:00,80.0,33.0,30.01,NW,316,11.0,-999.0,18,-99.99,,,0.00,weatherlink.com 1.10,2013-07-15 19:41:00,
2013-07-15 12:56:00,80.3,33.0,30.00,NW,318,11.0,-999.0,18,-99.99,,,0.00,weatherlink.com 1.10,2013-07-15 19:56:00,
2013-07-15 13:11:00,81.1,34.0,30.00,North,349,13.0,-999.0,18,-99.99,,,0.00,weatherlink.com 1.10,2013-07-15 20:11:00,
2013-07-15 13:26:00,81.2,31.0,30.00,WNW,300,8.0,-999.0,16,-99.99,,,0.00,weatherlink.com 1.10,2013-07-15 20:26:00,
2013-07-15 13:56:00,82.2,33.0,29.99,North,358,13.0,-999.0,17,-99.99,,,0.00,weatherlink.com 1.10,2013-07-15 20:56:00,
2013-07-15 14:11:00,83.7,33.0,29.98,North,355,10.0,-999.0,16,-99.99,,,0.00,weatherlink.com 1.10,2013-07-15 21:11:00,
2013-07-15 14:26:00,83.3,34.0,29.98,NW,323,14.0,-999.0,17,-99.99,,,0.00,weatherlink.com 1.10,2013-07-15 21:26:00,
2013-07-15 14:41:00,83.7,33.0,29.98,NW,304,12.0,-999.0,16,-99.99,,,0.00,weatherlink.com 1.10,2013-07-15 21:41:00,
2013-07-15 14:56:00,83.7,34.0,29.97,NW,321,15.0,-999.0,17,-99.99,,,0.00,weatherlink.com 1.10,2013-07-15 21:56:00,
2013-07-15 15:11:00,83.6,34.0,29.97,North,9,13.0,-999.0,17,-99.99,,,0.00,weatherlink.com 1.10,2013-07-15 22:11:00,
2013-07-15 15:26:00,83.9,35.0,29.96,NNW,327,12.0,-999.0,17,-99.99,,,0.00,weatherlink.com 1.10,2013-07-15 22:26:00,
2013-07-15 15:41:00,84.2,35.0,29.96,North,349,15.0,-999.0,17,-99.99,,,0.00,weatherlink.com 1.10,2013-07-15 22:41:00,
2013-07-15 15:56:00,83.9,35.0,29.96,NNE,18,10.0,-999.0,17,-99.99,,,0.00,weatherlink.com 1.10,2013-07-15 22:56:00,
2013-07-15 16:11:00,84.1,33.0,29.95,NNE,12,16.0,-999.0,16,-99.99,,,0.00,weatherlink.com 1.10,2013-07-15 23:11:00,
2013-07-15 16:41:00,84.1,33.0,29.95,NW,325,6.0,-999.0,16,-99.99,,,0.00,weatherlink.com 1.10,2013-07-15 23:41:00,
2013-07-15 16:56:00,84.1,33.0,29.94,NNW,344,14.0,-999.0,16,-99.99,,,0.00,weatherlink.com 1.10,2013-07-15 23:56:00,
2013-07-15 17:11:00,83.7,34.0,29.94,North,1,13.0,-999.0,17,-99.99,,,0.00,weatherlink.com 1.10,2013-07-16 00:11:00,
2013-07-15 17:26:00,83.4,34.0,29.94,NNE,23,7.0,-999.0,17,-99.99,,,0.00,weatherlink.com 1.10,2013-07-16 00:26:00,
2013-07-15 17:41:00,83.4,36.0,29.93,NNE,30,15.0,-999.0,18,-99.99,,,0.00,weatherlink.com 1.10,2013-07-16 00:41:00,
2013-07-15 17:56:00,82.6,38.0,29.93,NNE,23,15.0,-999.0,20,-99.99,,,0.00,weatherlink.com 1.10,2013-07-16 00:56:00,
2013-07-15 18:11:00,82.0,36.0,29.93,North,4,12.0,-999.0,19,-99.99,,,0.00,weatherlink.com 1.10,2013-07-16 01:11:00,
2013-07-15 18:26:00,81.4,37.0,29.93,NNE,19,17.0,-999.0,20,-99.99,,,0.00,weatherlink.com 1.10,2013-07-16 01:26:00,
2013-07-15 18:41:00,80.9,36.0,29.93,NNE,30,12.0,-999.0,20,-99.99,,,0.00,weatherlink.com 1.10,2013-07-16 01:41:00,
2013-07-15 18:57:00,80.4,36.0,29.93,NNE,27,16.0,-999.0,20,-99.99,,,0.00,weatherlink.com 1.10,2013-07-16 01:57:00,
2013-07-15 19:11:00,79.4,36.0,29.93,NNE,32,13.0,-999.0,21,-99.99,,,0.00,weatherlink.com 1.10,2013-07-16 02:11:00,
2013-07-15 19:26:00,78.5,37.0,29.93,NE,50,10.0,-999.0,22,-99.99,,,0.00,weatherlink.com 1.10,2013-07-16 02:26:00,
2013-07-15 19:41:00,77.7,36.0,29.93,NE,38,11.0,-999.0,22,-99.99,,,0.00,weatherlink.com 1.10,2013-07-16 02:41:00,
2013-07-15 19:56:00,76.7,36.0,29.93,NE,54,7.0,-999.0,23,-99.99,,,0.00,weatherlink.com 1.10,2013-07-16 02:56:00,
2013-07-15 20:11:00,75.9,37.0,29.94,NNE,20,10.0,-999.0,24,-99.99,,,0.00,weatherlink.com 1.10,2013-07-16 03:11:00,
2013-07-15 20:41:00,73.4,35.0,29.95,NNE,32,8.0,-999.0,25,-99.99,,,0.00,weatherlink.com 1.10,2013-07-16 03:41:00,
2013-07-15 20:56:00,72.3,35.0,29.95,NNE,14,8.0,-999.0,26,-99.99,,,0.00,weatherlink.com 1.10,2013-07-16 03:56:00,
2013-07-15 21:11:00,70.6,36.0,29.96,NNE,18,6.0,-999.0,28,-99.99,,,0.00,weatherlink.com 1.10,2013-07-16 04:11:00,
2013-07-15 21:26:00,69.9,36.0,29.96,NNE,25,7.0,-999.0,29,-99.99,,,0.00,weatherlink.com 1.10,2013-07-16 04:26:00,
2013-07-15 21:41:00,69.9,35.0,29.97,NNE,22,8.0,-999.0,28,-99.99,,,0.00,weatherlink.com 1.10,2013-07-16 04:41:00,
2013-07-15 21:56:00,69.4,36.0,29.97,ENE,65,1.0,-999.0,29,-99.99,,,0.00,weatherlink.com 1.10,2013-07-16 04:56:00,
2013-07-15 22:11:00,67.3,36.0,29.96,WNW,299,3.0,-999.0,31,-99.99,,,0.00,weatherlink.com 1.10,2013-07-16 05:11:00,
2013-07-15 22:26:00,66.1,36.0,29.97,NW,311,5.0,-999.0,33,-99.99,,,0.00,weatherlink.com 1.10,2013-07-16 05:26:00,
2013-07-15 22:41:00,65.9,36.0,29.97,North,4,1.0,-999.0,33,-99.99,,,0.00,weatherlink.com 1.10,2013-07-16 05:41:00,
2013-07-15 22:56:00,63.9,36.0,29.97,SE,141,0.0,-999.0,35,-99.99,,,0.00,weatherlink.com 1.10,2013-07-16 05:56:00,
2013-07-15 23:11:00,62.1,35.0,29.97,WSW,238,4.0,-999.0,37,-99.99,,,0.00,weatherlink.com 1.10,2013-07-16 06:11:00,